Time;durP1;ratioP1;P1;durP2;ratioP2;P2;SDS_P1;SDS_P2;PMS_P1;PMS_P2;Temp;Humidity;BMP_temperature;BMP_pressure;BME280_temperature;BME280_humidity;BME280_pressure;Samples;Min_cycle;Max_cycle;Signal;HPM_P1;HPM_P2
2022/03/04 00:02:41;;;;;;;2.62;1.98;;;-4.90;1.40;;;-4.60;100.00;95329.63;647001;216;31579;-76
2022/03/04 00:05:27;;;;;;;3.78;2.15;;;-4.90;1.40;;;-4.61;100.00;95334.17;620190;226;31879;-75
2022/03/04 00:08:13;;;;;;;1.30;1.20;;;-4.90;1.40;;;-4.60;100.00;95329.81;647111;216;31548;-76
2022/03/04 00:10:55;;;;;;;5.40;2.47;;;-4.90;1.40;;;-4.64;100.00;95336.01;620050;226;32493;-76
2022/03/04 00:13:37;;;;;;;2.70;1.95;;;-4.90;1.40;;;-4.58;100.00;95345.70;647410;216;31604;-76
2022/03/04 00:16:19;;;;;;;2.30;2.05;;;-4.80;1.40;;;-4.45;100.00;95342.77;647216;216;42184;-76
2022/03/04 00:19:07;;;;;;;2.00;1.70;;;-4.80;1.40;;;-4.41;100.00;95345.50;647552;212;31541;-76
2022/03/04 00:21:49;;;;;;;2.53;1.20;;;-4.80;1.40;;;-4.59;100.00;95344.31;646508;216;31635;-75
2022/03/04 00:24:30;;;;;;;1.73;1.62;;;-4.80;1.40;;;-4.70;100.00;95344.50;648652;216;42188;-76
2022/03/04 00:27:13;;;;;;;2.60;2.40;;;-4.90;1.40;;;-4.74;100.00;95347.06;647817;216;31703;-76
2022/03/04 00:29:56;;;;;;;2.72;1.65;;;-5.00;1.40;;;-4.78;100.00;95348.84;645471;216;42256;-76
2022/03/04 00:32:37;;;;;;;2.25;1.67;;;-5.10;1.40;;;-4.85;100.00;95350.25;647709;216;31679;-76
2022/03/04 00:35:57;;;;;;;2.12;1.70;;;-5.10;1.40;;;-4.87;100.00;95349.56;647140;216;31675;-76
2022/03/04 00:38:39;;;;;;;2.42;1.77;;;-5.10;1.40;;;-4.85;100.00;95352.37;619738;222;31894;-77
2022/03/04 00:41:21;;;;;;;4.62;2.10;;;-5.10;1.40;;;-4.81;100.00;95355.27;646471;212;42188;-75
2022/03/04 00:44:08;;;;;;;5.40;2.53;;;-5.20;1.40;;;-4.88;100.00;95351.00;645256;216;42727;-75
2022/03/04 00:46:56;;;;;;;4.40;2.15;;;-5.20;1.40;;;-4.89;100.00;95348.44;648410;216;31565;-75
2022/03/04 00:49:39;;;;;;;3.42;2.30;;;-5.20;1.40;;;-4.79;100.00;95352.59;646090;216;31626;-76
2022/03/04 00:52:21;;;;;;;5.40;2.05;;;-5.20;1.40;;;-4.72;100.00;95349.36;619225;226;31950;-76
2022/03/04 00:55:03;;;;;;;7.35;2.40;;;-5.10;1.40;;;-4.71;100.00;95344.95;647432;212;31666;-75
2022/03/04 00:57:45;;;;;;;4.28;2.70;;;-5.10;1.40;;;-4.59;100.00;95349.94;648384;212;31851;-76
2022/03/04 01:00:27;;;;;;;2.65;2.08;;;-5.00;1.40;;;-4.62;100.00;95350.14;645972;212;31850;-75
2022/03/04 01:03:15;;;;;;;5.30;2.42;;;-5.10;1.40;;;-4.62;100.00;95348.97;647142;216;31555;-76
2022/03/04 01:06:02;;;;;;;2.47;2.17;;;-5.10;1.40;;;-4.59;100.00;95348.72;647934;216;42187;-76
2022/03/04 01:08:44;;;;;;;1.87;1.50;;;-5.00;1.40;;;-4.57;100.00;95339.47;647006;212;42303;-76
2022/03/04 01:11:26;;;;;;;5.20;4.70;;;-5.00;1.40;;;-4.54;100.00;95337.87;647090;216;31575;-76
2022/03/04 01:14:13;;;;;;;6.47;2.75;;;-5.00;1.40;;;-4.31;100.00;95335.19;620040;226;43115;-73
2022/03/04 01:16:58;;;;;;;3.35;2.85;;;-4.80;1.40;;;-4.44;100.00;95339.62;619228;226;31924;-75
2022/03/04 01:19:41;;;;;;;5.65;2.22;;;-4.90;1.40;;;-4.45;100.00;95331.86;646459;212;31556;-76
2022/03/04 01:22:22;;;;;;;5.85;3.58;;;-4.90;1.40;;;-4.51;100.00;95332.80;645755;212;31559;-75
2022/03/04 01:25:05;;;;;;;3.90;2.20;;;-5.00;1.40;;;-4.56;100.00;95332.42;647638;212;31602;-76
2022/03/04 01:27:47;;;;;;;4.85;3.17;;;-5.00;1.40;;;-4.59;100.00;95329.27;647913;212;31539;-76
2022/03/04 01:30:37;;;;;;;4.75;3.40;;;-5.00;1.40;;;-4.62;100.00;95327.90;645751;212;32510;-73
2022/03/04 01:35:53;;;;;;;2.53;2.33;;;-5.00;1.40;;;-4.66;100.00;95321.84;646865;216;31665;-75
2022/03/04 01:38:35;;;;;;;2.75;2.53;;;-5.10;1.40;;;-4.68;100.00;95323.58;647051;212;31551;-76
2022/03/04 01:41:17;;;;;;;3.22;2.40;;;-5.20;1.40;;;-4.70;100.00;95323.46;620476;222;32493;-76
2022/03/04 01:43:59;;;;;;;6.00;3.03;;;-5.20;1.40;;;-4.71;100.00;95322.73;647104;216;31558;-76
2022/03/04 01:46:41;;;;;;;5.97;2.70;;;-5.20;1.40;;;-4.72;100.00;95322.39;646552;216;31552;-76
2022/03/04 01:49:28;;;;;;;4.60;3.50;;;-5.30;1.40;;;-4.83;100.00;95318.67;647168;216;31589;-73
2022/03/04 01:52:17;;;;;;;8.20;3.60;;;-5.30;1.40;;;-4.80;100.00;95314.81;647068;216;31607;-76
2022/03/04 01:54:59;;;;;;;4.40;2.80;;;-5.20;1.40;;;-4.80;100.00;95313.98;647088;216;42339;-76
2022/03/04 01:57:40;;;;;;;2.60;2.40;;;-5.30;1.40;;;-4.82;100.00;95317.14;619831;226;32051;-76
2022/03/04 02:00:22;;;;;;;3.40;3.00;;;-5.30;1.40;;;-4.88;100.00;95313.35;647567;216;31579;-76
2022/03/04 02:03:13;;;;;;;3.55;2.10;;;-5.20;1.40;;;-4.85;100.00;95313.66;645684;216;31900;-73
2022/03/04 02:06:00;;;;;;;2.40;2.20;;;-5.20;1.40;;;-4.91;100.00;95311.44;651108;212;24476;-76
2022/03/04 02:08:42;;;;;;;3.10;2.80;;;-5.30;1.40;;;-4.95;100.00;95310.04;619602;222;31944;-76
2022/03/04 02:11:25;;;;;;;2.10;1.70;;;-5.30;1.40;;;-4.99;100.00;95309.66;647916;216;31601;-76
2022/03/04 02:14:06;;;;;;;3.80;3.20;;;-5.30;1.40;;;-5.04;100.00;95307.34;646788;212;31524;-76
2022/03/04 02:16:50;;;;;;;3.37;2.37;;;-5.30;1.40;;;-5.02;100.00;95309.23;646912;212;31615;-75
2022/03/04 02:19:32;;;;;;;4.22;2.78;;;-5.30;1.40;;;-5.02;100.00;95309.07;646554;212;42218;-75
2022/03/04 02:22:16;;;;;;;3.90;2.00;;;-5.40;1.40;;;-5.05;100.00;95307.83;647339;216;31556;-76
2022/03/04 02:24:58;;;;;;;6.28;2.50;;;-5.50;1.40;;;-4.96;100.00;95306.78;619491;222;32072;-77
2022/03/04 02:27:41;;;;;;;3.90;2.60;;;-5.50;1.40;;;-4.88;100.00;95308.56;646657;212;31822;-75
2022/03/04 02:30:29;;;;;;;7.72;2.90;;;-5.30;1.40;;;-4.97;100.00;95304.38;646091;216;31602;-75
2022/03/04 02:35:51;;;;;;;5.22;1.87;;;-5.60;1.40;;;-5.25;100.00;95298.36;646375;212;31583;-75
2022/03/04 02:38:33;;;;;;;3.90;2.00;;;-5.70;1.40;;;-5.29;100.00;95300.88;645871;216;31611;-73
2022/03/04 02:41:21;;;;;;;3.75;2.42;;;-5.70;1.40;;;-5.39;100.00;95294.50;647115;212;31522;-76
2022/03/04 02:44:05;;;;;;;3.97;2.28;;;-5.70;1.40;;;-5.41;100.00;95294.11;646119;214;31611;-76
2022/03/04 02:46:47;;;;;;;3.40;2.00;;;-5.80;1.40;;;-5.27;100.00;95298.36;646136;212;31553;-76
2022/03/04 02:49:35;;;;;;;2.30;2.10;;;-5.60;1.40;;;-5.17;100.00;95290.19;646195;213;31567;-75
2022/03/04 02:52:16;;;;;;;6.12;3.10;;;-5.50;1.40;;;-5.07;100.00;95288.84;646406;216;31617;-75
2022/03/04 02:54:58;;;;;;;4.32;1.30;;;-5.40;1.40;;;-4.94;100.00;95288.03;647079;212;31653;-72
2022/03/04 02:57:43;;;;;;;7.50;2.90;;;-5.40;1.40;;;-5.01;100.00;95286.78;620034;222;32134;-76
2022/03/04 03:00:24;;;;;;;1.50;1.40;;;-5.60;1.40;;;-5.24;100.00;95289.22;647038;212;31591;-76
2022/03/04 03:03:12;;;;;;;2.00;1.15;;;-5.80;1.40;;;-5.44;100.00;95288.42;646413;212;31647;-72
2022/03/04 03:05:54;;;;;;;4.47;2.55;;;-5.90;1.40;;;-5.47;100.00;95285.61;646423;212;31584;-75
2022/03/04 03:08:35;;;;;;;2.30;1.60;;;-6.00;1.40;;;-5.53;100.00;95285.55;646839;216;31847;-73
2022/03/04 03:11:50;;;;;;;4.80;2.13;;;-5.90;1.40;;;-5.49;100.00;95289.94;648455;216;31606;-76
2022/03/04 03:14:34;;;;;;;2.80;2.40;;;-5.80;1.40;;;-5.55;100.00;95283.06;647527;212;31587;-75
2022/03/04 03:17:18;;;;;;;4.40;1.98;;;-5.90;1.40;;;-5.62;100.00;95282.81;647230;213;42453;-76
2022/03/04 03:20:01;;;;;;;3.72;2.50;;;-6.00;1.40;;;-5.69;100.00;95278.19;647338;216;31651;-76
2022/03/04 03:22:43;;;;;;;2.90;1.45;;;-6.10;1.40;;;-5.72;100.00;95281.09;645673;212;31570;-76
2022/03/04 03:25:25;;;;;;;6.12;2.00;;;-6.10;1.40;;;-5.76;100.00;95279.88;647211;216;31608;-76
2022/03/04 03:28:08;;;;;;;4.00;2.10;;;-6.10;1.40;;;-5.85;100.00;95282.98;647141;212;31697;-76
2022/03/04 03:30:52;;;;;;;6.68;1.20;;;-6.10;1.40;;;-5.91;100.00;95286.42;619520;226;32507;-76
2022/03/04 03:35:54;;;;;;;2.83;2.00;;;-6.30;1.40;;;-5.94;100.00;95294.61;647256;216;31615;-76
2022/03/04 03:38:34;;;;;;;2.10;1.60;;;-6.20;1.40;;;-5.99;100.00;95295.89;646666;212;32231;-76
2022/03/04 03:41:21;;;;;;;4.10;2.30;;;-6.30;1.40;;;-6.06;100.00;95298.55;646871;216;32000;-73
2022/03/04 03:44:03;;;;;;;4.12;1.40;;;-6.40;1.40;;;-5.99;100.00;95305.89;646386;212;31676;-75
2022/03/04 03:46:45;;;;;;;6.15;2.78;;;-6.40;1.40;;;-6.04;100.00;95305.66;647884;216;32182;-73
2022/03/04 03:49:33;;;;;;;7.68;1.62;;;-6.50;1.40;;;-6.10;100.00;95311.84;647927;216;31611;-76
2022/03/04 03:52:14;;;;;;;3.00;1.70;;;-6.50;1.40;;;-6.14;100.00;95312.84;620389;222;31929;-76
2022/03/04 03:55:02;;;;;;;4.22;2.50;;;-6.60;1.40;;;-6.11;100.00;95309.34;646168;216;31683;-75
2022/03/04 03:57:47;;;;;;;7.20;1.85;;;-6.60;1.40;;;-5.97;100.00;95313.36;620414;222;31873;-76
2022/03/04 04:00:31;;;;;;;3.80;1.60;;;-6.50;1.40;;;-6.03;100.00;95308.98;647142;216;31582;-76
2022/03/04 04:03:19;;;;;;;4.80;1.90;;;-6.40;1.40;;;-5.92;100.00;95310.36;647860;212;31560;-74
2022/03/04 04:06:04;;;;;;;3.17;0.80;;;-6.30;1.40;;;-5.91;100.00;95311.78;634095;216;32232;-76
2022/03/04 04:08:52;;;;;;;3.30;1.30;;;-6.30;1.40;;;-5.98;100.00;95319.92;608274;226;32120;-74
2022/03/04 04:11:39;;;;;;;3.47;2.20;;;-6.40;1.40;;;-6.04;100.00;95314.05;647554;216;31591;-76
2022/03/04 04:14:21;;;;;;;3.70;1.45;;;-6.60;1.40;;;-6.09;100.00;95320.08;620726;226;31925;-76
2022/03/04 04:17:05;;;;;;;2.25;1.58;;;-6.60;1.40;;;-6.14;100.00;95324.23;647793;212;31691;-76
2022/03/04 04:19:46;;;;;;;1.80;1.70;;;-6.60;1.40;;;-6.27;100.00;95323.03;618755;226;31899;-76
2022/03/04 04:22:34;;;;;;;3.70;1.40;;;-6.70;1.40;;;-6.39;100.00;95324.22;646397;216;31997;-74
2022/03/04 04:25:19;;;;;;;3.70;1.30;;;-6.80;1.40;;;-6.43;100.00;95329.86;647021;216;31535;-76
2022/03/04 04:28:04;;;;;;;6.97;1.52;;;-6.80;1.40;;;-6.44;100.00;95331.66;646618;216;31894;-76
2022/03/04 04:30:49;;;;;;;3.90;1.87;;;-6.90;1.40;;;-6.37;100.00;95342.38;647200;212;31756;-77
2022/03/04 04:35:57;;;;;;;1.05;0.82;;;-6.80;1.40;;;-6.45;100.00;95334.64;646840;216;31556;-73
2022/03/04 04:38:45;;;;;;;3.20;1.20;;;-6.80;1.40;;;-6.44;100.00;95337.77;646484;216;31587;-76
2022/03/04 04:41:32;;;;;;;3.00;1.65;;;-6.90;1.40;;;-6.52;100.00;95336.48;646414;216;31565;-75
2022/03/04 04:44:14;;;;;;;3.30;1.50;;;-6.90;1.40;;;-6.56;100.00;95344.05;645717;216;32367;-74
2022/03/04 04:47:03;;;;;;;1.25;1.15;;;-6.90;1.40;;;-6.58;100.00;95344.30;648199;212;32332;-76
2022/03/04 04:49:44;;;;;;;1.62;1.33;;;-6.90;1.40;;;-6.68;100.00;95352.77;647903;212;31961;-76
2022/03/04 04:52:26;;;;;;;2.80;1.50;;;-6.90;1.40;;;-6.68;100.00;95350.02;620622;222;32077;-74
2022/03/04 04:55:09;;;;;;;2.60;1.40;;;-7.00;1.40;;;-6.72;100.00;95349.73;646786;212;32137;-76
2022/03/04 04:57:53;;;;;;;2.40;1.87;;;-7.10;1.40;;;-6.76;100.00;95352.27;646216;212;31488;-75
2022/03/04 05:00:41;;;;;;;2.37;1.60;;;-7.10;1.40;;;-6.73;100.00;95360.49;645996;216;31561;-74
2022/03/04 05:03:29;;;;;;;2.90;1.20;;;-7.10;1.40;;;-6.78;100.00;95357.20;647025;216;31540;-75
2022/03/04 05:06:13;;;;;;;2.50;1.50;;;-7.10;1.40;;;-6.82;100.00;95362.77;644439;212;31746;-74
2022/03/04 05:08:55;;;;;;;2.70;1.85;;;-7.00;1.40;;;-6.78;100.00;95360.64;647067;212;32147;-77
2022/03/04 05:11:40;;;;;;;1.10;1.00;;;-7.00;1.40;;;-6.80;100.00;95363.33;646554;216;31541;-75
2022/03/04 05:14:27;;;;;;;3.00;2.60;;;-7.00;1.40;;;-6.80;100.00;95362.13;619046;222;32083;-72
2022/03/04 05:17:15;;;;;;;2.90;1.70;;;-7.00;1.40;;;-6.83;100.00;95360.36;646200;216;31549;-75
2022/03/04 05:20:00;;;;;;;8.00;1.70;;;-7.10;1.40;;;-6.88;100.00;95362.63;619196;222;33079;-75
2022/03/04 05:22:42;;;;;;;1.17;1.08;;;-7.10;1.40;;;-6.87;100.00;95362.38;648497;216;31563;-75
2022/03/04 05:25:24;;;;;;;3.20;1.30;;;-7.20;1.40;;;-6.93;100.00;95363.55;619873;226;32567;-76
2022/03/04 05:28:07;;;;;;;5.30;1.50;;;-7.20;1.40;;;-6.92;100.00;95363.36;645747;216;32112;-75
2022/03/04 05:30:48;;;;;;;1.70;1.27;;;-7.10;1.40;;;-6.95;100.00;95359.40;647421;212;31601;-76
2022/03/04 05:35:51;;;;;;;1.60;1.00;;;-7.20;1.40;;;-6.96;100.00;95366.89;647710;216;33067;-75
2022/03/04 05:38:42;;;;;;;2.17;1.50;;;-7.10;1.40;;;-6.96;100.00;95366.22;647076;212;31573;-76
2022/03/04 05:41:30;;;;;;;1.35;1.25;;;-7.20;1.40;;;-7.00;100.00;95377.70;648172;216;31601;-76
2022/03/04 05:44:18;;;;;;;2.95;1.55;;;-7.10;1.40;;;-6.99;100.00;95387.88;630024;221;32005;-76
2022/03/04 05:47:05;;;;;;;1.67;1.12;;;-7.10;1.40;;;-6.99;100.00;95383.95;647822;212;31885;-76
2022/03/04 05:52:21;;;;;;;1.87;1.30;;;-7.10;1.40;;;-6.93;100.00;95395.25;618938;226;31854;-76
2022/03/04 05:55:03;;;;;;;2.40;1.35;;;-7.20;1.40;;;-6.79;100.00;95392.55;646961;212;31597;-76
2022/03/04 05:57:45;;;;;;;1.70;1.60;;;-7.10;1.40;;;-6.75;100.00;95392.88;646595;212;31599;-76
2022/03/04 06:00:27;;;;;;;2.10;1.00;;;-7.00;1.40;;;-6.74;100.00;95404.86;646985;212;31696;-76
2022/03/04 06:03:14;;;;;;;3.03;1.35;;;-7.10;1.40;;;-6.57;100.00;95402.91;646504;212;31666;-75
2022/03/04 06:05:56;;;;;;;2.22;2.03;;;-7.00;1.40;;;-6.50;100.00;95408.60;631281;220;31696;-74
2022/03/04 06:08:43;;;;;;;8.10;2.22;;;-6.90;1.40;;;-6.54;100.00;95404.74;617147;227;31940;-77
2022/03/04 06:11:25;;;;;;;5.07;3.58;;;-6.90;1.40;;;-6.44;100.00;95411.70;621290;223;32214;-76
2022/03/04 06:14:13;;;;;;;1.75;1.62;;;-6.90;1.40;;;-6.41;100.00;95409.71;646465;216;32028;-74
2022/03/04 06:16:58;;;;;;;3.80;2.00;;;-6.90;1.40;;;-6.25;100.00;95414.27;619506;222;32576;-76
2022/03/04 06:19:41;;;;;;;1.40;1.17;;;-6.70;1.40;;;-6.15;100.00;95414.73;619006;222;31864;-76
2022/03/04 06:22:22;;;;;;;2.25;1.08;;;-6.60;1.40;;;-6.03;100.00;95418.98;620552;226;32960;-75
2022/03/04 06:25:15;;;;;;;3.65;1.67;;;-6.50;1.40;;;-5.89;100.00;95417.89;619931;222;31914;-75
2022/03/04 06:28:00;;;;;;;2.10;1.65;;;-6.40;1.40;;;-5.81;100.00;95415.47;646973;216;31517;-75
2022/03/04 06:30:44;;;;;;;1.52;1.42;;;-6.20;1.40;;;-5.46;100.00;95417.69;620008;222;31881;-75
2022/03/04 06:35:55;;;;;;;4.40;2.17;;;-5.90;1.40;;;-5.27;100.00;95426.30;647037;212;42220;-75
2022/03/04 06:38:38;;;;;;;2.50;2.30;;;-5.90;1.40;;;-5.22;100.00;95430.49;646552;216;31550;-76
2022/03/04 06:41:22;;;;;;;6.20;2.60;;;-5.80;1.40;;;-5.16;100.00;95436.39;647569;216;31634;-75
2022/03/04 06:44:05;;;;;;;6.95;2.80;;;-5.70;1.40;;;-5.00;100.00;95437.72;647746;216;31558;-76
2022/03/04 06:46:46;;;;;;;4.07;2.80;;;-5.50;1.40;;;-4.77;100.00;95436.42;646231;216;31612;-76
2022/03/04 06:49:32;;;;;;;2.78;2.45;;;-5.40;1.40;;;-4.62;100.00;95436.84;618247;222;31911;-77
2022/03/04 06:52:14;;;;;;;5.90;3.08;;;-5.20;1.40;;;-4.52;100.00;95442.67;647052;216;32044;-74
2022/03/04 06:54:56;;;;;;;3.60;3.05;;;-5.10;1.40;;;-4.40;100.00;95442.40;647244;216;31546;-75
2022/03/04 06:57:39;;;;;;;5.15;2.10;;;-5.00;1.40;;;-4.28;100.00;95446.56;647673;216;31596;-74
2022/03/04 07:00:25;;;;;;;4.60;3.65;;;-4.90;1.40;;;-4.09;100.00;95447.27;646267;212;31576;-75
2022/03/04 07:03:07;;;;;;;6.30;3.30;;;-4.80;1.40;;;-3.85;100.00;95450.22;646726;216;32203;-75
2022/03/04 07:05:50;;;;;;;5.05;2.12;;;-4.50;1.40;;;-3.71;100.00;95447.26;618165;222;31930;-75
2022/03/04 07:08:36;;;;;;;5.75;3.47;;;-4.40;1.40;;;-3.56;100.00;95449.05;646594;216;42551;-75
2022/03/04 07:11:23;;;;;;;8.43;4.12;;;-4.20;1.40;;;-3.34;100.00;95457.17;646394;216;31747;-75
2022/03/04 07:14:10;;;;;;;8.32;3.65;;;-4.00;1.40;;;-3.00;100.00;95459.34;646698;212;31579;-75
2022/03/04 07:16:52;;;;;;;3.55;3.15;;;-3.70;1.40;;;-2.89;100.00;95457.36;646047;212;42223;-75
2022/03/04 07:19:34;;;;;;;8.57;3.25;;;-3.60;1.40;;;-2.65;100.00;95459.11;645971;216;31633;-77
2022/03/04 07:22:18;;;;;;;2.83;2.60;;;-3.30;1.40;;;-2.46;100.00;95460.79;646709;216;31889;-76
2022/03/04 07:25:07;;;;;;;5.37;3.45;;;-3.10;1.40;;;-2.17;100.00;95457.81;645801;216;31580;-77
2022/03/04 07:28:00;;;;;;;5.67;3.30;;;-2.90;1.40;;;-1.93;100.00;95459.32;642917;216;42719;-77
2022/03/04 07:30:42;;;;;;;5.30;3.50;;;-2.80;1.40;;;-1.72;100.00;95462.58;646897;216;31576;-76
2022/03/04 07:35:51;;;;;;;4.10;3.75;;;-2.40;1.40;;;-1.41;100.00;95467.50;646455;216;31814;-76
2022/03/04 07:38:34;;;;;;;7.80;4.32;;;-2.20;1.40;;;-1.28;100.00;95474.02;646253;216;31864;-76
2022/03/04 07:41:19;;;;;;;9.32;5.50;;;-2.10;1.40;;;-1.02;97.61;95473.19;647584;212;31577;-77
2022/03/04 07:44:03;;;;;;;4.72;4.00;;;-1.80;1.40;;;-0.81;95.91;95475.03;619470;226;31976;-73
2022/03/04 07:46:45;;;;;;;4.05;3.15;;;-1.60;1.40;;;-0.59;93.14;95473.28;621193;225;32058;-73
2022/03/04 07:49:28;;;;;;;5.00;3.90;;;-1.50;1.40;;;-0.40;91.43;95477.22;646707;212;32386;-76
2022/03/04 07:52:11;;;;;;;5.60;4.05;;;-1.30;1.40;;;-0.30;91.89;95484.34;641793;216;31564;-76
2022/03/04 07:54:53;;;;;;;6.50;5.80;;;-1.00;1.40;;;-0.01;90.59;95475.77;646574;216;31614;-76
2022/03/04 07:57:36;;;;;;;4.45;4.05;;;-0.80;1.40;;;0.20;89.36;95476.16;619421;222;31919;-77
2022/03/04 08:00:18;;;;;;;4.80;3.87;;;-0.70;1.40;;;0.36;88.05;95473.61;619305;222;32097;-76
2022/03/04 08:02:59;;;;;;;7.87;5.12;;;-0.60;1.40;;;0.59;86.11;95472.38;646703;216;31558;-76
2022/03/04 08:05:41;;;;;;;4.15;3.55;;;-0.40;1.40;;;0.35;83.84;95470.61;645328;216;31496;-77
2022/03/04 08:08:23;;;;;;;6.87;4.80;;;-0.30;1.40;;;0.60;83.72;95470.20;619863;222;32002;-77
2022/03/04 08:11:05;;;;;;;5.03;4.53;;;-0.10;1.40;;;0.69;83.15;95475.09;646368;216;31576;-76
2022/03/04 08:13:47;;;;;;;8.32;6.07;;;0.00;1.40;;;1.08;82.61;95479.38;647523;216;31589;-76
2022/03/04 08:16:33;;;;;;;7.40;4.80;;;0.20;1.40;;;1.10;79.81;95472.41;648438;216;42856;-76
2022/03/04 08:19:14;;;;;;;9.85;5.80;;;0.30;1.40;;;1.34;80.66;95472.08;617781;226;31973;-76
2022/03/04 08:21:55;;;;;;;7.93;5.55;;;0.50;1.40;;;1.64;78.91;95472.66;619013;226;31922;-76
2022/03/04 08:24:37;;;;;;;11.05;4.70;;;0.60;1.40;;;1.83;77.07;95481.48;619317;222;31943;-76
2022/03/04 08:27:19;;;;;;;6.97;4.75;;;0.90;1.40;;;1.97;76.41;95477.60;631350;218;31761;-76
2022/03/04 08:30:04;;;;;;;8.27;4.32;;;1.00;1.40;;;1.85;74.91;95477.59;620623;226;31893;-77
2022/03/04 08:32:49;;;;;;;8.00;5.75;;;1.10;1.40;;;2.12;74.19;95476.56;620287;222;42573;-77
2022/03/04 08:35:51;;;;;;;5.35;4.05;;;1.30;1.40;;;2.39;73.16;95480.73;618310;226;31940;-77
2022/03/04 08:38:34;;;;;;;8.38;5.75;;;1.50;1.40;;;2.54;72.19;95479.14;619528;226;43934;-76
2022/03/04 08:41:16;;;;;;;8.90;6.10;;;1.60;1.40;;;2.44;68.30;95478.08;647096;212;31574;-77
2022/03/04 08:43:58;;;;;;;6.72;6.00;;;1.70;1.40;;;2.77;69.93;95484.67;619700;222;32099;-77
2022/03/04 08:46:39;;;;;;;9.05;5.72;;;1.90;1.40;;;3.16;69.09;95480.75;647813;216;31581;-76
2022/03/04 08:49:21;;;;;;;8.30;5.30;;;2.10;1.40;;;3.49;68.64;95476.47;646250;212;42194;-76
2022/03/04 08:52:06;;;;;;;9.82;4.60;;;2.50;1.40;;;3.01;62.57;95487.50;646374;216;42761;-76
2022/03/04 08:54:47;;;;;;;5.72;5.22;;;2.40;1.40;;;3.32;62.93;95486.52;620357;222;32032;-76
2022/03/04 08:57:29;;;;;;;8.15;5.50;;;2.80;1.40;;;3.94;61.91;95486.75;648208;213;31556;-76
2022/03/04 09:00:16;;;;;;;7.07;4.80;;;3.20;1.40;;;4.03;57.75;95489.25;620314;222;31860;-75
2022/03/04 09:02:58;;;;;;;6.62;4.57;;;3.40;1.40;;;4.12;57.47;95484.33;619694;222;31916;-76
2022/03/04 09:05:43;;;;;;;9.73;5.90;;;3.60;1.40;;;4.05;54.70;95487.17;618707;222;31945;-75
2022/03/04 09:08:25;;;;;;;7.00;5.12;;;3.60;1.40;;;4.68;56.20;95481.59;642919;214;31599;-76
2022/03/04 09:11:07;;;;;;;8.70;4.60;;;4.50;1.40;;;6.45;52.83;95478.23;618752;222;31900;-76
2022/03/04 09:13:48;;;;;;;6.07;4.30;;;7.50;1.40;;;6.84;46.78;95474.38;618687;222;31941;-76
2022/03/04 09:16:30;;;;;;;11.07;5.80;;;7.60;1.40;;;7.99;48.61;95473.33;647385;216;31579;-76
2022/03/04 09:19:19;;;;;;;8.75;5.62;;;9.70;1.40;;;11.72;44.73;95468.75;618652;226;43135;-75
2022/03/04 09:22:08;;;;;;;8.40;6.00;;;12.00;1.40;;;10.88;37.48;95470.64;646569;213;32072;-76
2022/03/04 09:24:51;;;;;;;9.10;6.00;;;10.10;1.40;;;11.67;42.27;95466.06;647527;212;31584;-76
2022/03/04 09:27:34;;;;;;;10.88;6.80;;;11.70;1.40;;;12.91;33.57;95462.56;646737;216;40617;-75
2022/03/04 09:30:22;;;;;;;10.65;7.03;;;11.30;1.40;;;12.51;34.71;95463.05;647503;216;31597;-76
2022/03/04 09:36:00;;;;;;;9.52;6.78;;;12.80;1.40;;;10.79;34.37;95460.16;646265;212;31731;-74
2022/03/04 09:38:45;;;;;;;8.52;6.20;;;10.20;1.40;;;12.52;36.22;95457.97;620029;226;32223;-76
2022/03/04 09:41:27;;;;;;;8.80;6.60;;;11.50;1.40;;;15.04;33.11;95449.48;636234;217;32878;-76
2022/03/04 09:44:15;;;;;;;8.95;6.50;;;13.50;1.40;;;16.44;31.92;95452.44;646817;216;31610;-74
2022/03/04 09:47:03;;;;;;;10.53;6.50;;;13.10;1.40;;;17.64;34.37;95445.18;647098;212;31632;-76
2022/03/04 09:49:44;;;;;;;8.23;6.90;;;14.40;1.40;;;13.54;33.88;95453.46;647092;212;31549;-76
2022/03/04 09:52:26;;;;;;;9.95;6.95;;;11.80;1.40;;;11.19;32.45;95457.70;617684;222;32059;-77
2022/03/04 09:55:09;;;;;;;9.60;7.47;;;9.40;1.40;;;11.47;33.14;95454.23;646718;216;31581;-76
2022/03/04 09:57:51;;;;;;;7.97;7.00;;;11.00;1.40;;;11.37;33.11;95460.81;619906;225;31905;-77
2022/03/04 10:00:39;;;;;;;11.38;7.68;;;10.30;1.40;;;10.19;35.04;95455.39;647180;216;31570;-74
2022/03/04 10:03:44;;;;;;;10.00;7.20;;;10.10;1.40;;;11.86;32.51;95453.30;646275;216;31570;-77
2022/03/04 10:06:32;;;;;;;10.13;7.03;;;11.90;1.40;;;11.05;32.57;95448.78;645451;216;31677;-74
2022/03/04 10:09:14;;;;;;;11.95;7.57;;;10.80;1.40;;;10.46;34.45;95451.83;646062;216;36503;-74
2022/03/04 10:12:02;;;;;;;9.90;6.93;;;11.10;1.40;;;12.08;33.65;95453.27;646435;212;42274;-76
2022/03/04 10:14:57;;;;;;;9.60;6.35;;;11.50;1.40;;;13.30;32.83;95445.38;647155;216;31593;-74
2022/03/04 10:17:39;;;;;;;9.55;7.00;;;12.30;1.40;;;11.17;32.84;95448.47;647861;216;42255;-74
2022/03/04 10:20:43;;;;;;;8.65;6.53;;;9.50;1.40;;;11.10;32.86;95444.16;619252;222;42766;-75
2022/03/04 10:23:30;;;;;;;10.88;7.28;;;10.90;1.40;;;14.20;31.90;95437.44;647280;215;31715;-74
2022/03/04 10:26:11;;;;;;;7.28;6.25;;;12.40;1.40;;;13.83;32.45;95429.16;645441;212;31667;-74
2022/03/04 10:28:53;;;;;;;9.20;7.03;;;13.00;1.40;;;11.37;32.99;95444.97;646063;216;31822;-74
2022/03/04 10:31:36;;;;;;;8.85;6.82;;;9.60;1.40;;;9.35;34.83;95443.41;647631;216;31560;-77
2022/03/04 10:36:07;;;;;;;9.02;6.45;;;9.00;1.40;;;10.12;33.80;95442.57;620296;222;32666;-76
2022/03/04 10:38:48;;;;;;;10.15;7.55;;;9.70;1.40;;;11.53;34.66;95442.42;646913;216;31631;-75
2022/03/04 10:41:30;;;;;;;9.98;6.82;;;10.20;1.40;;;11.98;33.89;95441.69;647545;216;31603;-77
2022/03/04 10:44:24;;;;;;;12.35;6.90;;;11.90;1.40;;;12.88;32.19;95438.22;619450;222;32179;-75
2022/03/04 10:47:08;;;;;;;14.15;7.50;;;12.00;1.40;;;17.63;29.02;95422.80;646278;212;31895;-74
2022/03/04 10:49:56;;;;;;;10.02;7.07;;;14.70;1.40;;;20.79;26.02;95418.25;647719;216;31673;-76
2022/03/04 10:52:52;;;;;;;10.17;7.30;;;16.20;1.40;;;17.05;25.60;95421.89;619061;222;32237;-76
2022/03/04 10:55:43;;;;;;;9.65;6.68;;;13.40;1.40;;;18.09;27.89;95415.98;619608;226;32695;-74
2022/03/04 10:58:31;;;;;;;8.43;6.80;;;13.20;1.40;;;14.17;31.65;95431.24;646850;212;31580;-76
2022/03/04 11:01:20;;;;;;;8.85;7.25;;;13.00;1.40;;;19.33;26.90;95418.11;647816;216;31563;-76
2022/03/04 11:04:02;;;;;;;9.32;7.47;;;15.90;1.40;;;16.13;28.32;95425.75;620054;222;32114;-76
2022/03/04 11:06:45;;;;;;;9.57;6.65;;;14.30;1.40;;;20.98;26.31;95409.75;618623;222;31862;-76
2022/03/04 11:10:36;;;;;;;8.30;6.97;;;16.60;1.40;;;17.73;26.37;95416.44;646334;216;31563;-76
2022/03/04 11:13:23;;;;;;;9.35;7.00;;;14.10;1.40;;;16.99;26.30;95418.31;645176;216;32459;-75
2022/03/04 11:16:11;;;;;;;9.68;7.45;;;13.50;99.90;;;17.64;28.00;95410.84;646248;216;31819;-76
2022/03/04 11:21:28;;;;;;;7.78;5.90;;;14.60;1.40;;;13.87;26.96;95417.81;619943;223;31925;-76
2022/03/04 11:24:16;;;;;;;9.73;7.00;;;11.40;1.40;;;12.44;30.33;95424.17;645596;216;31715;-74
2022/03/04 11:27:04;;;;;;;8.68;6.37;;;11.70;1.40;;;15.02;26.34;95413.62;645709;212;31555;-76
2022/03/04 11:29:52;;;;;;;7.32;5.75;;;12.60;1.40;;;14.03;27.80;95411.75;646447;212;42179;-75
2022/03/04 11:32:39;;;;;;;6.85;5.55;;;12.90;1.40;;;18.09;25.47;95396.47;647682;216;31561;-75
2022/03/04 11:36:15;;;;;;;9.40;5.30;;;15.80;1.40;;;21.66;22.89;95393.77;646250;216;32228;-75
2022/03/04 11:39:04;;;;;;;8.02;5.50;;;15.60;99.90;;;22.51;21.85;95386.70;646290;216;31544;-76
2022/03/04 11:42:09;;;;;;;8.13;5.82;;;15.80;99.90;;;20.02;24.22;95390.64;646469;216;31533;-77
2022/03/04 11:44:51;;;;;;;9.47;6.33;;;16.00;99.90;;;15.83;24.14;95401.25;619999;222;42905;-76
2022/03/04 11:47:41;;;;;;;11.85;7.30;;;12.20;99.90;;;13.49;27.01;95405.80;647185;216;31555;-77
2022/03/04 11:50:23;;;;;;;7.87;5.57;;;10.40;1.40;;;15.08;26.71;95390.30;646768;216;31767;-76
2022/03/04 11:53:14;;;;;;;8.73;6.35;;;13.60;99.90;;;13.57;27.03;95400.97;647604;216;32256;-74
2022/03/04 11:59:25;;;;;;;10.80;6.63;;;12.20;1.40;;;14.68;28.81;95392.91;646491;216;31575;-76
2022/03/04 12:02:08;;;;;;;9.40;6.70;;;13.90;99.90;;;21.41;23.27;95373.34;647424;216;32110;-75
2022/03/04 12:04:51;;;;;;;7.85;6.20;;;16.60;99.90;;;22.81;21.10;95367.13;647517;212;31830;-76
2022/03/04 12:07:35;;;;;;;11.23;7.18;;;17.10;99.90;;;23.38;22.68;95363.53;639581;212;42371;-75
2022/03/04 12:10:23;;;;;;;11.02;7.47;;;17.40;99.90;;;22.95;21.34;95362.54;645394;216;31621;-75